Time;durP1;ratioP1;P1;durP2;ratioP2;P2;SDS_P1;SDS_P2;PMS_P1;PMS_P2;Temp;Humidity;BMP_temperature;BMP_pressure;BME280_temperature;BME280_humidity;BME280_pressure;Samples;Min_cycle;Max_cycle;Signal;HPM_P1;HPM_P2
2023/11/16 00:02:12;;;;;;;8.57;3.20;;;7.70;99.90;;;;;;6155661;23;20393;-58
2023/11/16 00:04:39;;;;;;;3.83;2.00;;;7.70;99.90;;;;;;6156524;23;20434;-58
2023/11/16 00:07:07;;;;;;;4.33;2.10;;;7.70;99.90;;;;;;6156160;23;20390;-57
2023/11/16 00:09:33;;;;;;;5.47;2.13;;;7.60;99.90;;;;;;6156116;23;20382;-58
2023/11/16 00:12:00;;;;;;;6.00;2.30;;;7.60;99.90;;;;;;6156250;23;20450;-56
2023/11/16 00:14:26;;;;;;;9.13;2.67;;;7.60;99.90;;;;;;6156195;23;20470;-55
2023/11/16 00:16:54;;;;;;;5.27;2.30;;;7.50;99.90;;;;;;6156445;23;20561;-58
2023/11/16 00:19:23;;;;;;;9.23;2.50;;;7.40;99.90;;;;;;6155570;23;20391;-55
2023/11/16 00:21:50;;;;;;;5.20;2.60;;;7.40;99.90;;;;;;6157103;23;20398;-58
2023/11/16 00:24:16;;;;;;;5.93;2.30;;;7.40;99.90;;;;;;6156642;23;20462;-59
2023/11/16 00:26:42;;;;;;;7.07;2.90;;;7.40;99.90;;;;;;6156825;23;20351;-57
2023/11/16 00:29:08;;;;;;;6.53;2.93;;;7.40;99.90;;;;;;6157077;23;20667;-59
2023/11/16 00:31:34;;;;;;;5.40;2.63;;;7.40;99.90;;;;;;6157296;23;20151;-57
2023/11/16 00:33:59;;;;;;;4.17;2.20;;;7.50;99.90;;;;;;6157745;23;20481;-56
2023/11/16 00:36:25;;;;;;;3.43;2.17;;;7.50;99.90;;;;;;6157135;23;20419;-55
2023/11/16 00:38:56;;;;;;;6.00;2.67;;;7.40;99.90;;;;;;6156707;23;20302;-58
2023/11/16 00:41:22;;;;;;;3.90;2.37;;;7.50;99.90;;;;;;6157814;23;20166;-54
2023/11/16 00:43:48;;;;;;;5.40;2.03;;;7.50;99.90;;;;;;6157717;23;20597;-57
2023/11/16 00:46:16;;;;;;;5.27;2.07;;;7.50;99.90;;;;;;6157831;23;20390;-58
2023/11/16 00:48:42;;;;;;;5.60;2.03;;;7.50;99.90;;;;;;6158989;23;20357;-55
2023/11/16 00:51:14;;;;;;;6.03;2.10;;;7.50;99.90;;;;;;6156559;23;20358;-56
2023/11/16 00:53:42;;;;;;;13.70;2.57;;;7.50;99.90;;;;;;6158980;23;20352;-58
2023/11/16 00:56:13;;;;;;;4.00;2.10;;;7.60;99.90;;;;;;6157283;23;20393;-55
2023/11/16 00:58:39;;;;;;;3.90;2.20;;;7.60;99.90;;;;;;6159928;23;20386;-57
2023/11/16 01:01:05;;;;;;;4.83;2.30;;;7.70;99.90;;;;;;6159686;23;20396;-54
2023/11/16 01:03:36;;;;;;;4.37;1.77;;;7.70;99.90;;;;;;6159346;23;20426;-58
2023/11/16 01:06:02;;;;;;;3.57;2.37;;;7.70;99.90;;;;;;6157416;23;20347;-55
2023/11/16 01:08:33;;;;;;;4.23;1.63;;;7.70;99.90;;;;;;6157586;23;20726;-58
2023/11/16 01:11:02;;;;;;;7.77;1.93;;;7.70;99.90;;;;;;6158415;23;20481;-56
2023/11/16 01:13:38;;;;;;;4.03;1.80;;;7.70;87.90;;;;;;6158077;23;20481;-58
2023/11/16 01:16:12;;;;;;;4.40;1.90;;;7.70;55.50;;;;;;6158094;23;20397;-58
2023/11/16 01:18:46;;;;;;;3.53;1.70;;;7.70;92.60;;;;;;6158429;23;20488;-56
2023/11/16 01:21:12;;;;;;;4.47;1.70;;;7.70;99.00;;;;;;6159422;23;20351;-56
2023/11/16 01:23:39;;;;;;;3.30;1.80;;;7.70;97.90;;;;;;6158711;23;20421;-58
2023/11/16 01:26:13;;;;;;;2.00;1.67;;;7.70;99.90;;;;;;6158370;23;20518;-57
2023/11/16 01:28:45;;;;;;;7.87;2.20;;;7.80;99.90;;;;;;6157991;23;20828;-58
2023/11/16 01:31:12;;;;;;;8.27;2.50;;;7.80;99.90;;;;;;6157036;23;20489;-55
2023/11/16 01:33:38;;;;;;;4.10;2.00;;;7.70;99.90;;;;;;6157672;23;20460;-58
2023/11/16 01:36:04;;;;;;;4.87;2.43;;;7.80;99.90;;;;;;6158780;23;20366;-57
2023/11/16 01:38:33;;;;;;;3.73;2.60;;;7.70;99.90;;;;;;6158628;23;20154;-57
2023/11/16 01:40:58;;;;;;;5.27;2.07;;;7.70;99.90;;;;;;6158201;23;20386;-56
2023/11/16 01:43:26;;;;;;;5.53;2.10;;;7.70;99.90;;;;;;6157892;23;20440;-56
2023/11/16 01:45:52;;;;;;;6.50;2.10;;;7.70;99.90;;;;;;6157692;23;20185;-56
2023/11/16 01:48:23;;;;;;;7.20;2.40;;;7.80;99.90;;;;;;6158584;23;20473;-56
2023/11/16 01:50:48;;;;;;;6.43;2.50;;;7.80;99.90;;;;;;6158509;23;20791;-58
2023/11/16 01:53:14;;;;;;;5.00;2.33;;;7.90;99.90;;;;;;6158378;23;20478;-56
2023/11/16 01:55:44;;;;;;;5.60;1.80;;;7.90;99.90;;;;;;6132624;23;20257;-58
2023/11/16 01:58:10;;;;;;;3.47;2.00;;;7.80;99.90;;;;;;6158211;23;20429;-56
2023/11/16 02:00:37;;;;;;;5.77;2.70;;;7.80;99.90;;;;;;6158670;23;20679;-56
2023/11/16 02:03:04;;;;;;;3.70;2.00;;;7.70;99.90;;;;;;6158348;23;20454;-55
2023/11/16 02:05:34;;;;;;;4.33;1.73;;;7.70;99.90;;;;;;6157757;23;20392;-57
2023/11/16 02:08:01;;;;;;;5.03;2.27;;;7.80;99.90;;;;;;6159510;23;20383;-56
2023/11/16 02:10:30;;;;;;;5.83;2.27;;;7.70;99.90;;;;;;6158980;23;20770;-58
2023/11/16 02:12:56;;;;;;;3.40;1.80;;;7.70;99.90;;;;;;6157392;23;20406;-54
2023/11/16 02:15:22;;;;;;;6.20;2.60;;;7.80;99.90;;;;;;6159006;23;20417;-57
2023/11/16 02:17:49;;;;;;;5.37;1.67;;;7.80;99.90;;;;;;6158721;23;20438;-59
2023/11/16 02:20:15;;;;;;;6.10;2.30;;;7.70;99.90;;;;;;6159226;23;20151;-56
2023/11/16 02:22:42;;;;;;;5.53;2.30;;;7.70;99.90;;;;;;6132621;23;20391;-59
2023/11/16 02:25:08;;;;;;;4.27;1.60;;;7.70;99.90;;;;;;6158714;23;20379;-58
2023/11/16 02:27:35;;;;;;;8.57;2.50;;;7.60;99.90;;;;;;6158111;23;20643;-55
2023/11/16 02:30:01;;;;;;;5.80;2.20;;;7.70;99.90;;;;;;6157572;23;20767;-58
2023/11/16 02:32:26;;;;;;;4.50;2.10;;;7.60;99.90;;;;;;6157902;23;20389;-56
2023/11/16 02:34:52;;;;;;;5.03;2.10;;;7.70;99.90;;;;;;6157847;23;20238;-57
2023/11/16 02:37:21;;;;;;;4.10;1.50;;;7.60;99.90;;;;;;6157560;23;20158;-57
2023/11/16 02:39:47;;;;;;;5.93;1.73;;;7.60;99.90;;;;;;6156787;23;20395;-58
2023/11/16 02:42:13;;;;;;;6.33;2.20;;;7.60;99.90;;;;;;6157862;23;20655;-51
2023/11/16 02:44:45;;;;;;;3.50;2.00;;;7.60;99.90;;;;;;6158118;23;20191;-56
2023/11/16 02:47:11;;;;;;;3.00;1.63;;;7.50;99.90;;;;;;6158626;23;20628;-56
2023/11/16 02:49:37;;;;;;;4.63;2.10;;;7.60;99.90;;;;;;6158191;23;20843;-57
2023/11/16 02:52:02;;;;;;;5.77;2.03;;;7.50;99.90;;;;;;6158568;23;20453;-57
2023/11/16 02:54:30;;;;;;;3.13;1.73;;;7.50;99.90;;;;;;6158618;23;20250;-57
2023/11/16 02:56:56;;;;;;;4.13;2.30;;;7.50;99.90;;;;;;6158608;23;20367;-56
2023/11/16 02:59:22;;;;;;;6.23;2.03;;;7.50;99.90;;;;;;6158381;23;20391;-55
2023/11/16 03:01:47;;;;;;;6.97;2.10;;;7.60;99.90;;;;;;6132440;23;20456;-58
2023/11/16 03:04:13;;;;;;;6.17;1.87;;;7.60;99.90;;;;;;6157948;23;20183;-57
2023/11/16 03:06:39;;;;;;;3.50;1.90;;;7.60;99.90;;;;;;6157937;23;20568;-57
2023/11/16 03:09:05;;;;;;;4.20;2.07;;;7.50;99.90;;;;;;6157711;23;20162;-56
2023/11/16 03:11:35;;;;;;;6.43;3.40;;;7.60;99.90;;;;;;6156881;23;20455;-56
2023/11/16 03:14:01;;;;;;;4.73;2.20;;;7.60;99.90;;;;;;6158083;23;20395;-56
2023/11/16 03:16:26;;;;;;;3.33;2.20;;;7.60;99.90;;;;;;6131917;23;20390;-57
2023/11/16 03:18:52;;;;;;;8.40;2.20;;;7.50;99.90;;;;;;6131227;23;20414;-54
2023/11/16 03:21:18;;;;;;;4.67;2.03;;;7.50;99.90;;;;;;6157249;23;20139;-53
2023/11/16 03:23:44;;;;;;;5.23;2.13;;;7.50;99.90;;;;;;6157596;23;20649;-55
2023/11/16 03:26:10;;;;;;;3.20;2.00;;;7.50;99.90;;;;;;6158025;23;20414;-55
2023/11/16 03:28:36;;;;;;;4.90;2.20;;;7.50;99.90;;;;;;6158104;23;20401;-57
2023/11/16 03:31:05;;;;;;;9.73;2.47;;;7.60;99.90;;;;;;6157858;23;20527;-53
2023/11/16 03:33:34;;;;;;;4.40;2.00;;;7.60;99.90;;;;;;6157371;23;20394;-55
2023/11/16 03:35:59;;;;;;;4.27;2.30;;;7.60;99.90;;;;;;6157816;23;20363;-58
2023/11/16 03:38:26;;;;;;;5.83;2.07;;;7.60;99.90;;;;;;6157815;23;20460;-57
2023/11/16 03:40:52;;;;;;;4.70;2.13;;;7.60;99.90;;;;;;6157732;23;20170;-53
2023/11/16 03:43:18;;;;;;;8.73;2.77;;;7.60;99.90;;;;;;6106868;23;20438;-56
2023/11/16 03:45:45;;;;;;;10.30;2.50;;;7.60;99.90;;;;;;6157551;23;20214;-58
2023/11/16 03:48:11;;;;;;;4.37;2.00;;;7.60;99.90;;;;;;6140252;23;20530;-54
2023/11/16 03:50:39;;;;;;;11.40;3.20;;;7.60;99.90;;;;;;6157622;23;20351;-54
2023/11/16 03:53:06;;;;;;;2.97;1.90;;;7.50;99.90;;;;;;6157586;23;20399;-56
2023/11/16 03:55:31;;;;;;;3.80;2.00;;;7.50;1.00;;;;;;6157464;23;20413;-54
2023/11/16 03:57:57;;;;;;;8.53;2.40;;;7.50;99.90;;;;;;6157779;23;20406;-56
2023/11/16 04:00:25;;;;;;;9.50;2.60;;;7.50;1.00;;;;;;6156333;23;20206;-57
2023/11/16 04:02:52;;;;;;;5.03;2.37;;;7.50;99.90;;;;;;6157075;23;20550;-55
2023/11/16 04:05:18;;;;;;;6.10;2.10;;;7.50;1.00;;;;;;6157825;23;20474;-56
2023/11/16 04:07:44;;;;;;;8.30;2.80;;;7.50;1.00;;;;;;6156812;23;20619;-57
2023/11/16 04:10:12;;;;;;;5.77;2.70;;;7.40;99.90;;;;;;6156807;23;20394;-55
2023/11/16 04:12:40;;;;;;;5.00;2.60;;;7.40;99.90;;;;;;6157426;23;20383;-54
2023/11/16 04:15:09;;;;;;;5.53;2.20;;;7.40;1.00;;;;;;6155741;23;20366;-55
2023/11/16 04:17:36;;;;;;;6.13;2.40;;;7.30;1.00;;;;;;6156420;23;20425;-55
2023/11/16 04:20:03;;;;;;;5.90;2.30;;;7.40;1.00;;;;;;6155596;23;20431;-56
2023/11/16 04:22:30;;;;;;;10.67;3.33;;;7.30;1.00;;;;;;6156768;23;20397;-56
2023/11/16 04:24:57;;;;;;;4.13;2.40;;;7.30;1.00;;;;;;6156951;23;20796;-55
2023/11/16 04:27:26;;;;;;;10.67;3.40;;;7.40;1.00;;;;;;6156598;23;20386;-57
2023/11/16 04:29:52;;;;;;;6.63;2.77;;;7.30;1.00;;;;;;6154819;23;20396;-57
2023/11/16 04:32:17;;;;;;;4.30;2.53;;;7.40;1.00;;;;;;6155106;23;20391;-57
2023/11/16 04:34:44;;;;;;;5.57;2.20;;;7.40;1.00;;;;;;6156251;23;20286;-56
2023/11/16 04:37:10;;;;;;;7.40;2.43;;;7.40;1.00;;;;;;6155647;23;20155;-57
2023/11/16 04:39:37;;;;;;;4.17;2.20;;;7.40;1.00;;;;;;6155158;23;20398;-55
2023/11/16 04:42:03;;;;;;;6.73;2.40;;;7.40;1.00;;;;;;6152870;23;20356;-57
2023/11/16 04:44:28;;;;;;;7.40;2.80;;;7.40;99.90;;;;;;6153690;23;20437;-56
2023/11/16 04:46:54;;;;;;;9.03;3.13;;;7.40;99.90;;;;;;6155019;23;20379;-54
2023/11/16 04:49:20;;;;;;;8.20;1.97;;;7.40;99.90;;;;;;6155553;23;20198;-56
2023/11/16 04:51:46;;;;;;;4.20;1.93;;;7.40;99.90;;;;;;6155472;23;20182;-56
2023/11/16 04:54:12;;;;;;;4.70;2.10;;;7.40;99.90;;;;;;6153694;23;20151;-57
2023/11/16 04:56:38;;;;;;;9.97;2.63;;;7.40;99.90;;;;;;6128274;23;20379;-56
2023/11/16 04:59:05;;;;;;;9.37;2.20;;;7.50;99.90;;;;;;6154948;23;20159;-56
2023/11/16 05:01:30;;;;;;;5.43;2.30;;;7.40;99.90;;;;;;6154752;23;20406;-58
2023/11/16 05:03:56;;;;;;;4.10;2.10;;;7.40;99.90;;;;;;6128352;23;20437;-57
2023/11/16 05:06:22;;;;;;;5.73;2.50;;;7.40;99.90;;;;;;6153487;23;20239;-56
2023/11/16 05:08:47;;;;;;;5.00;2.50;;;7.40;99.90;;;;;;6154121;23;20159;-57
2023/11/16 05:11:23;;;;;;;5.70;2.13;;;7.50;99.90;;;;;;6155953;23;20394;-55
2023/11/16 05:13:50;;;;;;;7.20;2.30;;;7.50;99.90;;;;;;6154113;23;20179;-55
2023/11/16 05:16:16;;;;;;;4.30;1.97;;;7.40;99.90;;;;;;6152820;23;20549;-58
2023/11/16 05:18:43;;;;;;;4.23;2.30;;;7.40;99.90;;;;;;6153610;23;20473;-57
2023/11/16 05:21:09;;;;;;;4.27;2.03;;;7.40;99.90;;;;;;6154934;23;20716;-55
2023/11/16 05:23:35;;;;;;;6.30;2.03;;;7.30;99.90;;;;;;6155071;23;20407;-57
2023/11/16 05:26:02;;;;;;;5.37;2.13;;;7.30;99.90;;;;;;6154834;23;20470;-56
2023/11/16 05:28:27;;;;;;;9.00;2.80;;;7.30;99.90;;;;;;6153937;23;20386;-58
2023/11/16 05:30:53;;;;;;;6.17;2.10;;;7.30;99.90;;;;;;6153175;23;20746;-57
2023/11/16 05:33:19;;;;;;;7.13;2.27;;;7.30;99.90;;;;;;6128928;23;20455;-57
2023/11/16 05:35:48;;;;;;;4.30;1.93;;;7.20;99.90;;;;;;6156177;23;20136;-56
2023/11/16 05:38:14;;;;;;;5.00;2.33;;;7.20;99.90;;;;;;6130160;23;20151;-57
2023/11/16 05:40:39;;;;;;;7.73;2.47;;;7.20;99.90;;;;;;6155024;23;20397;-56
2023/11/16 05:43:05;;;;;;;6.87;2.33;;;7.20;99.90;;;;;;6155806;23;20414;-56
2023/11/16 05:45:31;;;;;;;8.13;2.90;;;7.20;99.90;;;;;;6156317;23;20163;-57
2023/11/16 05:47:58;;;;;;;4.00;2.10;;;7.20;99.90;;;;;;6155817;23;20422;-58
2023/11/16 05:50:26;;;;;;;4.57;2.20;;;7.20;99.90;;;;;;6156854;23;20215;-57
2023/11/16 05:52:53;;;;;;;8.10;2.70;;;7.30;99.90;;;;;;6156086;23;20482;-57
2023/11/16 05:55:20;;;;;;;5.53;1.60;;;7.30;99.90;;;;;;6155817;23;20406;-57
2023/11/16 05:57:47;;;;;;;3.80;1.90;;;7.30;99.90;;;;;;6156711;23;20497;-58
2023/11/16 06:00:14;;;;;;;2.97;1.90;;;7.30;99.90;;;;;;6154279;23;20370;-58
2023/11/16 06:02:39;;;;;;;3.60;2.20;;;7.30;99.90;;;;;;6128174;23;20363;-57
2023/11/16 06:05:08;;;;;;;5.50;1.90;;;7.30;99.90;;;;;;6128793;23;20481;-56
2023/11/16 06:07:36;;;;;;;5.07;2.07;;;7.30;99.90;;;;;;6129183;23;20160;-61
2023/11/16 06:10:02;;;;;;;7.00;1.97;;;7.30;99.90;;;;;;6155787;23;20419;-57
2023/11/16 06:12:28;;;;;;;2.77;1.67;;;7.30;99.90;;;;;;6153762;23;20402;-58
2023/11/16 06:14:55;;;;;;;4.60;1.90;;;7.40;99.90;;;;;;6152904;23;20470;-55
2023/11/16 06:17:21;;;;;;;7.30;2.40;;;7.40;99.90;;;;;;6152647;23;20391;-56
2023/11/16 06:19:47;;;;;;;5.10;2.63;;;7.30;99.90;;;;;;6152289;23;20387;-58
2023/11/16 06:22:12;;;;;;;3.23;2.27;;;7.30;99.90;;;;;;6151719;23;20689;-57
2023/11/16 06:24:39;;;;;;;4.00;2.33;;;7.30;99.90;;;;;;6152564;23;20183;-58
2023/11/16 06:27:05;;;;;;;4.43;2.23;;;7.30;99.90;;;;;;6152775;23;20456;-58
2023/11/16 06:29:32;;;;;;;5.00;2.50;;;7.20;99.90;;;;;;6153135;23;20363;-58
2023/11/16 06:32:00;;;;;;;3.70;2.50;;;7.20;99.90;;;;;;6126511;23;20714;-59
2023/11/16 06:34:31;;;;;;;5.53;2.13;;;7.30;99.90;;;;;;6128372;23;20438;-56
2023/11/16 06:36:58;;;;;;;9.87;4.40;;;7.30;99.90;;;;;;6154465;23;20395;-57
2023/11/16 06:39:24;;;;;;;25.83;11.67;;;7.30;99.90;;;;;;6152875;23;20470;-55
2023/11/16 06:41:49;;;;;;;35.60;18.10;;;7.30;99.90;;;;;;6127943;23;20363;-56
2023/11/16 06:44:19;;;;;;;17.50;9.10;;;7.30;99.90;;;;;;6154923;23;20437;-56
2023/11/16 06:46:45;;;;;;;23.90;12.57;;;7.30;99.90;;;;;;6157038;23;20523;-59
2023/11/16 06:49:11;;;;;;;17.43;10.30;;;7.30;99.90;;;;;;6156274;23;20503;-57
2023/11/16 06:51:37;;;;;;;15.07;8.20;;;7.30;99.90;;;;;;6154233;23;20766;-58
2023/11/16 06:54:05;;;;;;;14.17;7.50;;;7.40;99.90;;;;;;6102716;23;20545;-60
2023/11/16 06:56:33;;;;;;;11.50;6.00;;;7.40;99.90;;;;;;6153639;23;20140;-57
2023/11/16 06:59:03;;;;;;;13.03;4.67;;;7.40;99.90;;;;;;6154654;23;20467;-58
2023/11/16 07:01:30;;;;;;;5.13;3.40;;;7.40;99.90;;;;;;6154190;23;20437;-58
2023/11/16 07:03:56;;;;;;;5.10;3.57;;;7.40;99.90;;;;;;6153142;23;20735;-56
2023/11/16 07:06:21;;;;;;;4.80;3.60;;;7.40;99.90;;;;;;6152833;23;20352;-58
2023/11/16 07:08:47;;;;;;;5.50;3.87;;;7.40;99.90;;;;;;6153257;23;20143;-58
2023/11/16 07:11:15;;;;;;;6.40;3.83;;;7.40;99.90;;;;;;6154228;23;20510;-59
2023/11/16 07:13:41;;;;;;;9.10;4.07;;;7.40;99.90;;;;;;6153948;23;20515;-57
2023/11/16 07:16:08;;;;;;;4.33;2.70;;;7.50;99.90;;;;;;6154618;23;20454;-55
2023/11/16 07:18:34;;;;;;;4.07;2.30;;;7.50;99.90;;;;;;6129489;23;20163;-58
2023/11/16 07:21:04;;;;;;;3.90;2.70;;;7.60;99.90;;;;;;6154662;23;20393;-57
2023/11/16 07:23:30;;;;;;;4.30;2.50;;;7.60;99.90;;;;;;6156370;23;20254;-60
2023/11/16 07:25:56;;;;;;;9.00;2.60;;;7.60;99.90;;;;;;6154011;23;20390;-57
2023/11/16 07:28:25;;;;;;;5.07;2.80;;;7.70;99.90;;;;;;6153068;23;20155;-58
2023/11/16 07:30:52;;;;;;;3.47;2.53;;;7.70;99.90;;;;;;6155147;23;20441;-58
2023/11/16 07:33:18;;;;;;;5.10;3.10;;;7.80;99.90;;;;;;6130249;23;20366;-56
2023/11/16 07:35:47;;;;;;;4.70;2.40;;;7.80;99.90;;;;;;6153978;23;20363;-56
2023/11/16 07:38:13;;;;;;;4.73;2.70;;;7.90;99.90;;;;;;6153651;23;20895;-58
2023/11/16 07:40:40;;;;;;;6.13;2.63;;;7.90;99.90;;;;;;6154060;23;20390;-55
2023/11/16 07:43:06;;;;;;;3.60;2.17;;;8.00;99.90;;;;;;6153291;23;20422;-57
2023/11/16 07:45:32;;;;;;;3.70;2.50;;;8.10;99.90;;;;;;6152439;23;20411;-59
2023/11/16 07:48:01;;;;;;;8.60;4.37;;;8.10;99.90;;;;;;6133159;23;20445;-57
2023/11/16 07:50:32;;;;;;;10.20;4.40;;;8.10;2.70;;;;;;6154746;23;20397;-57
2023/11/16 07:53:08;;;;;;;5.93;2.93;;;8.10;35.40;;;;;;6154894;23;20403;-55
2023/11/16 07:55:35;;;;;;;5.70;2.60;;;8.20;1.00;;;;;;6153439;23;20394;-57
2023/11/16 07:58:03;;;;;;;9.43;3.30;;;8.20;1.00;;;;;;6154631;23;20476;-56
2023/11/16 08:00:34;;;;;;;5.07;2.20;;;8.20;1.00;;;;;;6155650;23;20418;-57
2023/11/16 08:05:48;;;;;;;10.13;2.70;;;8.20;1.00;;;;;;6154236;23;20458;-57
2023/11/16 08:08:18;;;;;;;4.53;2.63;;;8.30;1.00;;;;;;6155110;23;20489;-56
2023/11/16 08:10:45;;;;;;;4.87;2.30;;;8.30;1.00;;;;;;6155753;23;20383;-58
2023/11/16 08:13:12;;;;;;;4.80;2.70;;;8.30;1.00;;;;;;6156561;23;20720;-59
2023/11/16 08:15:41;;;;;;;4.90;2.30;;;8.40;1.00;;;;;;6155359;23;20461;-57
2023/11/16 08:18:08;;;;;;;4.90;1.93;;;8.50;99.90;;;;;;6154951;23;20364;-56
2023/11/16 08:20:34;;;;;;;5.57;2.67;;;9.10;1.00;;;;;;6155098;23;20394;-57
2023/11/16 08:22:59;;;;;;;6.80;2.87;;;9.30;1.00;;;;;;6155689;23;20809;-57
2023/11/16 08:25:30;;;;;;;4.80;2.90;;;9.30;84.10;;;;;;6156414;23;20821;-58
2023/11/16 08:27:57;;;;;;;3.67;1.97;;;9.30;1.00;;;;;;6155010;23;20488;-57
2023/11/16 08:30:23;;;;;;;6.67;2.30;;;9.30;1.00;;;;;;6154179;23;20429;-57
2023/11/16 08:32:50;;;;;;;4.13;2.00;;;9.30;1.00;;;;;;6154383;23;20354;-56
2023/11/16 08:35:17;;;;;;;2.70;2.00;;;9.30;99.90;;;;;;6152513;23;20444;-57
2023/11/16 08:37:44;;;;;;;4.00;1.73;;;9.30;26.90;;;;;;6154158;23;20386;-56
2023/11/16 08:40:18;;;;;;;5.23;2.27;;;9.40;1.10;;;;;;6154003;23;20998;-58
2023/11/16 08:42:47;;;;;;;3.00;2.00;;;9.40;1.00;;;;;;6155005;23;20505;-56
2023/11/16 08:45:20;;;;;;;8.90;2.60;;;9.40;1.00;;;;;;6152811;23;20384;-56
2023/11/16 08:47:52;;;;;;;5.97;2.10;;;9.30;1.00;;;;;;6154852;23;20435;-56
2023/11/16 08:50:20;;;;;;;4.47;2.37;;;9.40;1.00;;;;;;6156107;23;20689;-57
2023/11/16 08:52:47;;;;;;;4.87;2.27;;;9.30;1.00;;;;;;6156016;23;20391;-57
2023/11/16 08:55:15;;;;;;;4.03;2.30;;;9.30;1.00;;;;;;6154776;23;20378;-56
2023/11/16 08:57:42;;;;;;;6.63;2.70;;;9.30;1.00;;;;;;6154282;23;20387;-55
2023/11/16 09:00:30;;;;;;;3.50;2.10;;;9.30;1.00;;;;;;6126932;23;20452;-57
2023/11/16 09:03:09;;;;;;;5.13;2.20;;;9.20;1.00;;;;;;6152133;23;20450;-57
2023/11/16 09:05:40;;;;;;;2.73;1.90;;;9.30;1.00;;;;;;6151281;23;20382;-57
2023/11/16 09:08:10;;;;;;;7.83;2.60;;;9.40;1.00;;;;;;6154227;23;20388;-58
2023/11/16 09:10:36;;;;;;;3.97;2.00;;;9.50;1.00;;;;;;6156207;23;20725;-57
2023/11/16 09:13:03;;;;;;;4.20;2.10;;;9.60;1.00;;;;;;6154881;23;20375;-55
2023/11/16 09:15:30;;;;;;;4.20;2.03;;;9.80;1.00;;;;;;6154899;23;20541;-58
2023/11/16 09:18:00;;;;;;;5.57;1.90;;;9.90;1.00;;;;;;6154854;23;20362;-57
2023/11/16 09:20:28;;;;;;;4.90;2.00;;;10.00;1.00;;;;;;6130587;23;20391;-58
2023/11/16 09:22:57;;;;;;;6.23;2.40;;;9.90;99.90;;;;;;6130854;23;20395;-58
2023/11/16 09:25:25;;;;;;;3.97;2.30;;;9.90;1.00;;;;;;6157885;23;20457;-58
2023/11/16 09:27:54;;;;;;;4.60;2.40;;;9.80;99.90;;;;;;6155404;23;20398;-55
2023/11/16 09:30:22;;;;;;;7.70;2.90;;;9.70;1.00;;;;;;6156338;23;20700;-57
2023/11/16 09:32:55;;;;;;;5.00;2.33;;;9.60;99.90;;;;;;6157275;23;20414;-58
2023/11/16 09:35:22;;;;;;;6.00;2.23;;;9.60;99.90;;;;;;6157238;23;20382;-57
2023/11/16 09:37:55;;;;;;;5.37;2.50;;;9.60;99.90;;;;;;6156580;23;20382;-57
2023/11/16 09:40:28;;;;;;;2.57;1.80;;;9.60;1.00;;;;;;6154475;23;20439;-59
2023/11/16 09:42:58;;;;;;;6.27;2.47;;;9.50;1.00;;;;;;6153085;23;20383;-57
2023/11/16 09:45:27;;;;;;;5.90;2.10;;;9.50;1.00;;;;;;6153424;23;20359;-56
2023/11/16 09:48:10;;;;;;;9.20;2.47;;;9.50;99.90;;;;;;6154303;23;20501;-57
2023/11/16 09:50:44;;;;;;;4.60;2.30;;;9.50;1.00;;;;;;6156431;23;20625;-57
2023/11/16 09:53:16;;;;;;;3.80;2.17;;;9.40;1.00;;;;;;6156455;23;20440;-58
2023/11/16 09:55:50;;;;;;;7.23;1.80;;;9.40;1.00;;;;;;6154962;23;20501;-58
2023/11/16 09:58:21;;;;;;;6.07;2.50;;;9.40;1.00;;;;;;6129748;23;20519;-58
2023/11/16 10:00:49;;;;;;;4.80;2.33;;;9.40;99.90;;;;;;6155870;23;20760;-57
2023/11/16 10:03:26;;;;;;;4.63;2.13;;;9.50;1.00;;;;;;6154860;23;20399;-55
2023/11/16 10:05:55;;;;;;;5.17;2.90;;;9.50;1.00;;;;;;6156425;23;20442;-57
2023/11/16 10:08:27;;;;;;;3.97;2.00;;;9.50;99.90;;;;;;6129173;23;20935;-58
2023/11/16 10:10:54;;;;;;;5.63;2.30;;;9.50;99.90;;;;;;6155653;23;20390;-57
2023/11/16 10:13:21;;;;;;;4.53;1.93;;;9.50;99.90;;;;;;6153663;23;20386;-58
2023/11/16 10:15:48;;;;;;;5.97;2.50;;;9.40;99.90;;;;;;6154747;23;20414;-58
2023/11/16 10:18:20;;;;;;;5.73;2.13;;;9.40;99.90;;;;;;6154847;23;20359;-55
2023/11/16 10:20:46;;;;;;;8.03;2.33;;;9.40;99.90;;;;;;6154857;23;20486;-58
2023/11/16 10:23:12;;;;;;;5.20;1.93;;;9.30;99.90;;;;;;6128360;23;20414;-59
2023/11/16 10:25:38;;;;;;;6.93;2.10;;;9.30;99.90;;;;;;6154906;23;20230;-59
2023/11/16 10:28:22;;;;;;;6.80;2.27;;;9.20;99.90;;;;;;6155832;23;20455;-59
2023/11/16 10:30:50;;;;;;;8.43;3.07;;;9.30;99.90;;;;;;6155130;23;20383;-57
2023/11/16 10:33:21;;;;;;;7.63;2.47;;;9.30;1.00;;;;;;6153596;23;20351;-58
2023/11/16 10:35:49;;;;;;;5.30;2.20;;;9.30;99.90;;;;;;6155756;23;20370;-56
2023/11/16 10:38:17;;;;;;;6.23;2.40;;;9.40;77.60;;;;;;6156620;23;20386;-57
2023/11/16 10:40:47;;;;;;;5.60;2.30;;;9.40;99.90;;;;;;6128486;23;20485;-59
2023/11/16 10:43:18;;;;;;;6.73;2.50;;;9.40;55.30;;;;;;6156182;23;20498;-57
2023/11/16 10:45:44;;;;;;;4.10;2.23;;;9.30;99.90;;;;;;6155135;23;20485;-59
2023/11/16 10:48:13;;;;;;;7.93;2.77;;;9.40;99.90;;;;;;6153557;23;20427;-56
2023/11/16 10:50:42;;;;;;;4.00;2.10;;;9.30;99.90;;;;;;6153636;23;20198;-61
2023/11/16 10:53:17;;;;;;;4.97;2.27;;;9.30;1.00;;;;;;6129467;23;20710;-59
2023/11/16 10:55:46;;;;;;;6.70;2.47;;;9.40;99.90;;;;;;6130213;23;20717;-54
2023/11/16 10:58:12;;;;;;;6.63;2.43;;;9.30;99.90;;;;;;6129220;23;20382;-59
2023/11/16 11:00:41;;;;;;;3.40;2.00;;;9.40;99.90;;;;;;6155308;23;20395;-58
2023/11/16 11:03:07;;;;;;;4.53;2.10;;;9.30;99.90;;;;;;6156789;23;20771;-54
2023/11/16 11:05:36;;;;;;;9.23;3.10;;;9.30;99.90;;;;;;6129916;23;20359;-58
2023/11/16 11:08:08;;;;;;;14.10;2.80;;;9.30;1.00;;;;;;6154776;23;20395;-57
2023/11/16 11:10:38;;;;;;;8.37;3.23;;;9.30;1.00;;;;;;6156473;23;20466;-57
2023/11/16 11:13:04;;;;;;;5.10;2.40;;;9.40;1.00;;;;;;6131288;23;20410;-56
2023/11/16 11:15:31;;;;;;;5.20;2.50;;;9.60;1.00;;;;;;6156987;23;20441;-56
2023/11/16 11:18:00;;;;;;;4.70;2.97;;;9.80;99.90;;;;;;6132374;23;20398;-56
2023/11/16 11:20:44;;;;;;;3.57;1.93;;;10.00;1.00;;;;;;6131594;23;20378;-58
2023/11/16 11:23:13;;;;;;;6.57;2.50;;;10.20;99.90;;;;;;6156402;23;20453;-59
2023/11/16 11:25:41;;;;;;;11.00;2.87;;;10.30;99.90;;;;;;6154566;23;20411;-58
2023/11/16 11:28:11;;;;;;;4.30;2.20;;;10.40;99.90;;;;;;6154191;23;20782;-59
2023/11/16 11:30:54;;;;;;;4.40;2.57;;;10.40;99.90;;;;;;6154061;23;20379;-56
2023/11/16 11:33:39;;;;;;;6.73;2.50;;;10.50;99.90;;;;;;6153143;23;20359;-58
2023/11/16 11:36:09;;;;;;;8.67;3.20;;;10.60;99.90;;;;;;6153785;23;20398;-59
2023/11/16 11:38:38;;;;;;;8.50;2.50;;;10.50;99.90;;;;;;6154853;23;20463;-57
2023/11/16 11:41:09;;;;;;;6.63;2.70;;;10.50;1.00;;;;;;6127181;23;20794;-59
2023/11/16 11:43:38;;;;;;;8.20;2.60;;;10.60;99.90;;;;;;6129759;23;20426;-56
2023/11/16 11:46:18;;;;;;;5.30;2.17;;;10.70;1.00;;;;;;6154805;23;20374;-58
2023/11/16 11:48:47;;;;;;;6.20;2.50;;;10.80;99.90;;;;;;6154180;23;20904;-58
2023/11/16 11:51:14;;;;;;;5.57;2.93;;;10.70;99.90;;;;;;6153776;23;20371;-57
2023/11/16 11:53:40;;;;;;;6.50;2.37;;;10.60;99.90;;;;;;6155487;23;20375;-56
2023/11/16 11:56:07;;;;;;;3.77;2.17;;;10.50;1.00;;;;;;6155505;23;20386;-59
2023/11/16 11:58:37;;;;;;;5.87;2.33;;;10.40;1.00;;;;;;6127578;23;20922;-58
2023/11/16 12:01:04;;;;;;;3.47;1.90;;;10.30;1.00;;;;;;6154476;23;20955;-59
2023/11/16 12:03:30;;;;;;;3.87;2.37;;;10.20;99.90;;;;;;6154712;23;20525;-58
2023/11/16 12:06:08;;;;;;;5.60;2.60;;;10.10;99.90;;;;;;6153634;23;20355;-59
2023/11/16 12:08:42;;;;;;;3.13;2.30;;;10.00;99.90;;;;;;6153893;23;20738;-58
2023/11/16 12:11:10;;;;;;;4.07;2.23;;;10.00;19.60;;;;;;6153535;23;20784;-57
2023/11/16 12:13:40;;;;;;;4.80;2.47;;;10.00;1.00;;;;;;6153227;23;20386;-57
2023/11/16 12:16:07;;;;;;;3.50;1.83;;;9.90;99.90;;;;;;6151408;23;20385;-59
2023/11/16 12:18:41;;;;;;;7.60;2.50;;;9.90;1.00;;;;;;6126862;23;20386;-60
2023/11/16 12:21:19;;;;;;;6.97;2.60;;;9.90;99.90;;;;;;6151169;23;20697;-58
2023/11/16 12:23:50;;;;;;;5.73;2.30;;;10.00;99.90;;;;;;6126526;23;20445;-59
2023/11/16 12:26:24;;;;;;;3.67;2.17;;;10.00;99.90;;;;;;6153589;23;20481;-58
2023/11/16 12:28:49;;;;;;;5.03;2.87;;;10.00;99.90;;;;;;6126352;23;20845;-57
2023/11/16 12:31:18;;;;;;;4.83;2.30;;;10.00;99.90;;;;;;6127586;23;20379;-59
2023/11/16 12:33:48;;;;;;;7.20;4.90;;;10.00;99.90;;;;;;6153016;23;20170;-58
2023/11/16 12:36:20;;;;;;;6.07;3.40;;;9.90;99.90;;;;;;6154184;23;20359;-57
2023/11/16 12:38:48;;;;;;;5.60;2.93;;;9.80;99.90;;;;;;6155453;23;20582;-59
2023/11/16 12:41:17;;;;;;;7.60;3.73;;;9.70;1.00;;;;;;6155781;23;20482;-59
2023/11/16 12:43:45;;;;;;;4.20;3.13;;;9.60;1.00;;;;;;6155438;23;20450;-58
2023/11/16 12:46:12;;;;;;;4.80;3.23;;;9.60;1.00;;;;;;6157710;23;20410;-57
2023/11/16 12:48:40;;;;;;;3.90;3.07;;;9.50;99.90;;;;;;6157086;23;20797;-58
2023/11/16 12:51:08;;;;;;;15.37;12.50;;;9.50;1.00;;;;;;6156688;23;20398;-56
2023/11/16 12:53:40;;;;;;;12.80;10.70;;;9.50;89.10;;;;;;6156073;23;20355;-57
2023/11/16 12:56:07;;;;;;;4.77;3.53;;;9.40;1.00;;;;;;6155353;23;20405;-55
2023/11/16 12:58:38;;;;;;;4.70;2.80;;;9.30;1.00;;;;;;6154770;23;20390;-58
2023/11/16 13:01:06;;;;;;;3.63;1.93;;;9.30;1.00;;;;;;6128815;23;20864;-58
2023/11/16 13:03:32;;;;;;;5.77;3.43;;;9.30;1.00;;;;;;6129473;23;20713;-54
2023/11/16 13:05:59;;;;;;;2.60;2.30;;;9.30;1.00;;;;;;6153827;23;20426;-57